Terminal Aerodrome Forecast
Issued by NWS

Home | Current Version | Previous Version | Text Only | Print | Product List | Glossary On
Versions: 1 2 3 4 5 6 7 8 9 10 11 12 13 14 15 16 17 18 19 20 21 22 23
000
FTAK31 PAJN 221100
TAFAJN
TAF
PAJN 221125Z 2212/2312 09007KT P6SM -SHRA FEW006 BKN035 OVC050
     FM222100 10009KT 6SM -SHRA BR SCT010 OVC030
     FM230600 09007KT P6SM -SHRA OVC050=

USA.gov is the U.S. government's official web portal to all federal, state and local government web resources and services.